Etusivu
METAR-TAF:

METAR-TAF

Lentoasemat :

Apalachicola, Florida, Yhdysvallat

Leveyspiiri: 29-43-37N, Pituuspiiri: 085-01-29W, korkeus merenpinnasta: 6 m

Tämänhetkinen sää

Tämä raportti tehtiin 46 minuuttia sitten, kello 07.53 UTC
Tuuli 5 kn koillisesta
Lämpötila 6°C
Kosteus 81%
Ilmanpaine 1030 hPa
Näkyvyys: 16.1 km
selkeää

METAR: KAAF 080753Z AUTO 05005KT 10SM CLR 06/03 A3041 RMK AO2 SLP297 T00560028

Aika: 03:39 (08:39 UTC)


TAF: puuttuu

Säähavainnot ja -ennusteet yli 4000 lentoasemalta (METAR- ja TAF-raportit).

Käytössä olevat sääasemat on merkitty karttaan keltaisilla ja punaisilla pisteillä.

Aseta hiiri pisteen päälle nähdäksesi sääaseman nimen.

Klikkaa sitten nähdäksesi säähavainnot ja -ennusteet.

Kartan vaihtaminen: klikkaa mustalla rastilla varustettuja vihreitä pisteitä, niin voit zoomata sisään; viivalla varustettua vihreää pistettä, niin voit zoomata ulos tai vihreitä nuolia, niin pääset viereisille kartoille.


METAR-TAF: